createdAt,value
2023-03-26T00:00:23.538Z,2.6
2023-03-26T00:01:39.984Z,2
2023-03-26T00:02:55.926Z,2.3
2023-03-26T00:04:12.119Z,2.4
2023-03-26T00:05:28.314Z,2.3
2023-03-26T00:06:44.507Z,2.5
2023-03-26T00:07:59.718Z,1.9
2023-03-26T00:09:02.000Z,2.2
2023-03-26T00:10:32.104Z,2.1
2023-03-26T00:11:48.555Z,2.1
2023-03-26T00:13:04.491Z,2
2023-03-26T00:15:06.348Z,2.5
2023-03-26T00:15:35.906Z,2.1
2023-03-26T00:17:07.764Z,2.2
2023-03-26T00:18:06.580Z,2.2
2023-03-26T00:19:08.000Z,2.3
2023-03-26T00:20:37.740Z,2
2023-03-26T00:22:12.555Z,2.3
2023-03-26T00:23:10.127Z,2.4
2023-03-26T00:24:13.000Z,2.2
2023-03-26T00:25:42.763Z,2.1
2023-03-26T00:27:22.303Z,2.7
2023-03-26T00:28:15.142Z,2.1
2023-03-26T00:29:18.000Z,2.2
2023-03-26T00:30:47.288Z,2.1
2023-03-26T00:32:03.726Z,2.3
2023-03-26T00:33:19.926Z,2.1
2023-03-26T00:34:36.423Z,2.3
2023-03-26T00:35:51.080Z,2.2
2023-03-26T00:37:07.531Z,2.1
2023-03-26T00:38:10.000Z,2.3
2023-03-26T00:39:39.910Z,2.4
2023-03-26T00:40:55.853Z,2.3
2023-03-26T00:42:12.047Z,2.1
2023-03-26T00:43:28.242Z,2.2
2023-03-26T00:44:43.707Z,2.2
2023-03-26T00:45:58.672Z,2.1
2023-03-26T00:47:00.000Z,2.3
2023-03-26T00:48:29.357Z,2.5
2023-03-26T00:49:32.000Z,2.3
2023-03-26T00:51:01.489Z,2.2
2023-03-26T00:52:17.926Z,2.1
2023-03-26T00:53:33.876Z,2.2
2023-03-26T00:54:50.070Z,2
2023-03-26T00:56:06.525Z,2.3
2023-03-26T00:57:09.000Z,2.8
2023-03-26T00:58:38.652Z,2.3
2023-03-26T01:00:14.269Z,2.2
2023-03-26T01:01:11.039Z,2.5
2023-03-26T01:02:27.233Z,2.1
2023-03-26T01:03:30.000Z,2.2
2023-03-26T01:04:45.000Z,2.8
2023-03-26T01:06:14.829Z,2.1
2023-03-26T01:07:31.023Z,2.4
2023-03-26T01:08:47.217Z,2
2023-03-26T01:10:03.410Z,2.6
2023-03-26T01:11:19.604Z,2.1
2023-03-26T01:12:22.000Z,2.3
2023-03-26T01:13:51.265Z,2.5
2023-03-26T01:14:53.000Z,2.5
2023-03-26T01:16:22.665Z,2.1
2023-03-26T01:17:25.000Z,2
2023-03-26T01:18:40.000Z,2.4
2023-03-26T01:20:09.046Z,2
2023-03-26T01:21:25.240Z,2.4
2023-03-26T01:22:28.000Z,1.9
2023-03-26T01:23:57.627Z,2.2
2023-03-26T01:25:14.062Z,2.2
2023-03-26T01:26:30.014Z,2.4
2023-03-26T01:27:46.467Z,2.3
2023-03-26T01:29:02.401Z,2.2
2023-03-26T01:30:18.595Z,2.2
2023-03-26T01:31:21.000Z,2.2
2023-03-26T01:33:06.234Z,2.2
2023-03-26T01:33:54.000Z,2.2
2023-03-26T01:35:23.370Z,2.2
2023-03-26T01:36:38.580Z,2.1
2023-03-26T01:37:55.022Z,2.2
2023-03-26T01:38:23.000Z,2.2
2023-03-26T01:39:10.967Z,2.9
2023-03-26T01:40:27.406Z,2.2
2023-03-26T01:41:43.354Z,1.8
2023-03-26T01:43:23.747Z,2.1
2023-03-26T01:45:30.961Z,2.1
2023-03-26T01:46:46.172Z,2.3
2023-03-26T01:47:48.000Z,1.9
2023-03-26T01:49:16.602Z,2.2
2023-03-26T01:50:19.000Z,2.4
2023-03-26T01:51:49.240Z,2.3
2023-03-26T01:53:05.425Z,2.6
2023-03-26T01:54:21.618Z,2.2
2023-03-26T01:55:24.000Z,2.3
2023-03-26T01:56:05.000Z,2.1
2023-03-26T01:56:54.020Z,2.4
2023-03-26T01:58:10.197Z,2
2023-03-26T01:59:26.152Z,2.4
2023-03-26T02:00:29.000Z,2
2023-03-26T02:03:53.828Z,2.1
2023-03-26T02:04:17.000Z,2.3
2023-03-26T02:05:33.000Z,2.1
2023-03-26T02:07:02.573Z,2.2
2023-03-26T02:09:01.593Z,2.4
2023-03-26T02:09:34.965Z,2.2
2023-03-26T02:10:51.157Z,2.1
2023-03-26T02:12:07.105Z,1.9
2023-03-26T02:13:10.000Z,2.1
2023-03-26T02:14:38.519Z,2.2
2023-03-26T02:15:40.000Z,2.8
2023-03-26T02:17:08.950Z,2
2023-03-26T02:18:24.160Z,2.3
2023-03-26T02:19:27.000Z,2.2
2023-03-26T02:20:43.000Z,2.5
2023-03-26T02:22:12.741Z,2
2023-03-26T02:23:28.934Z,2.2
2023-03-26T02:24:45.128Z,2.3
2023-03-26T02:26:01.322Z,2.1
2023-03-26T02:27:04.000Z,1.9
2023-03-26T02:29:31.673Z,2
2023-03-26T02:29:49.902Z,2.1
2023-03-26T02:31:06.096Z,2.1
2023-03-26T02:32:22.290Z,2.5
2023-03-26T02:33:25.000Z,2.7
2023-03-26T02:34:53.694Z,2.5
2023-03-26T02:36:09.887Z,2.2
2023-03-26T02:37:26.331Z,2.2
2023-03-26T02:38:42.274Z,2
2023-03-26T02:39:58.468Z,2.2
2023-03-26T02:41:01.000Z,1.8
2023-03-26T02:42:30.856Z,2
2023-03-26T02:43:46.327Z,2.1
2023-03-26T02:45:01.286Z,1.9
2023-03-26T02:46:17.479Z,1.9
2023-03-26T02:47:32.699Z,2.5
2023-03-26T02:48:48.158Z,2.4
2023-03-26T02:50:04.103Z,2
2023-03-26T02:51:20.297Z,2.6
2023-03-26T02:52:36.490Z,2.2
2023-03-26T02:53:39.000Z,2.1
2023-03-26T02:55:08.878Z,2.1
2023-03-26T02:56:25.323Z,2.1
2023-03-26T02:57:41.524Z,2
2023-03-26T02:58:57.700Z,2.3
2023-03-26T03:00:13.653Z,2
2023-03-26T03:01:29.846Z,2.3
2023-03-26T03:02:46.040Z,2
2023-03-26T03:04:02.234Z,2.2
2023-03-26T03:05:17.444Z,2.4
2023-03-26T03:06:33.880Z,2.1
2023-03-26T03:07:49.832Z,1.8
2023-03-26T03:09:06.275Z,2
2023-03-26T03:09:32.000Z,1.9
2023-03-26T03:10:09.000Z,2.1
2023-03-26T03:11:25.000Z,2.2
2023-03-26T03:12:54.850Z,1.9
2023-03-26T03:14:09.826Z,1.7
2023-03-26T03:16:28.000Z,2.2
2023-03-26T03:17:56.450Z,2.3
2023-03-26T03:18:58.000Z,2.1
2023-03-26T03:20:27.853Z,2
2023-03-26T03:21:44.047Z,1.7
2023-03-26T03:22:47.000Z,2.2
2023-03-26T03:24:16.434Z,1.9
2023-03-26T03:25:32.628Z,2.2
2023-03-26T03:26:48.822Z,1.8
2023-03-26T03:28:05.015Z,2.1
2023-03-26T03:29:21.455Z,2.4
2023-03-26T03:30:37.672Z,2.1
2023-03-26T03:31:40.000Z,2.1
2023-03-26T03:33:09.789Z,2
2023-03-26T03:34:12.000Z,2.2
2023-03-26T03:35:41.435Z,2.1
2023-03-26T03:37:18.989Z,2.3
2023-03-26T03:38:13.580Z,2.3
2023-03-26T03:39:29.774Z,2.1
2023-03-26T03:40:45.967Z,2.1
2023-03-26T03:41:49.000Z,2
2023-03-26T03:43:18.609Z,2.1
2023-03-26T03:44:20.000Z,1.9
2023-03-26T03:45:48.786Z,2.2
2023-03-26T03:47:04.006Z,2.4
2023-03-26T03:48:19.464Z,2.2
2023-03-26T03:49:21.000Z,2.1
2023-03-26T03:50:49.894Z,2.6
2023-03-26T03:52:05.840Z,2.3
2023-03-26T03:53:22.033Z,2
2023-03-26T03:54:25.000Z,2.2
2023-03-26T03:55:41.000Z,2.4
2023-03-26T03:56:57.000Z,2.3
2023-03-26T03:58:27.051Z,2.6
2023-03-26T03:59:43.251Z,2.2
2023-03-26T04:00:58.217Z,2.6
2023-03-26T04:02:14.411Z,2.2
2023-03-26T04:03:30.604Z,2.5
2023-03-26T04:04:33.000Z,2.3
2023-03-26T04:06:03.242Z,2.1
2023-03-26T04:07:06.000Z,2.2
2023-03-26T04:08:35.379Z,2.5
2023-03-26T04:09:51.815Z,2.1
2023-03-26T04:11:07.766Z,2.2
2023-03-26T04:12:24.207Z,2.3
2023-03-26T04:13:40.401Z,2
2023-03-26T04:14:43.000Z,2
2023-03-26T04:16:11.567Z,2.2
2023-03-26T04:17:26.777Z,2.1
2023-03-26T04:17:52.000Z,2.1
2023-03-26T04:18:41.998Z,2.1
2023-03-26T04:19:44.000Z,2.4
2023-03-26T04:21:13.401Z,2.1
2023-03-26T04:22:16.000Z,2.3
2023-03-26T04:25:01.982Z,2
2023-03-26T04:26:18.176Z,2.3
2023-03-26T04:27:21.000Z,2.5
2023-03-26T04:28:50.563Z,2.2
2023-03-26T04:30:37.084Z,2.5
2023-03-26T04:31:22.950Z,2.4
2023-03-26T04:32:26.000Z,2.1
2023-03-26T04:33:42.000Z,2.3
2023-03-26T04:35:11.779Z,2.4
2023-03-26T04:36:27.005Z,2.8
2023-03-26T04:37:42.934Z,2.1
2023-03-26T04:38:59.129Z,2
2023-03-26T04:40:02.000Z,2.2
2023-03-26T04:41:31.516Z,2
2023-03-26T04:42:47.957Z,2.1
2023-03-26T04:44:03.903Z,2
2023-03-26T04:45:06.000Z,2.2
2023-03-26T04:46:34.334Z,2.2
2023-03-26T04:47:37.000Z,2.3
2023-03-26T04:49:05.747Z,2.5
2023-03-26T04:50:07.000Z,1.9
2023-03-26T04:51:37.390Z,1.9
2023-03-26T04:52:53.589Z,1.9
2023-03-26T04:54:09.539Z,2.1
2023-03-26T04:55:25.733Z,2.5
2023-03-26T04:56:28.000Z,2.1
2023-03-26T04:57:45.000Z,2
2023-03-26T04:59:14.313Z,2
2023-03-26T05:00:17.000Z,2.2
2023-03-26T05:01:46.701Z,1.9
2023-03-26T05:03:02.894Z,1.6
2023-03-26T05:04:19.337Z,2.3
2023-03-26T05:05:22.000Z,1.8
2023-03-26T05:06:37.000Z,2.3
2023-03-26T05:08:06.933Z,2.1
2023-03-26T05:09:22.880Z,1.9
2023-03-26T05:10:39.320Z,2.1
2023-03-26T05:11:55.267Z,2
2023-03-26T05:12:58.000Z,1.9
2023-03-26T05:14:27.900Z,2.1
2023-03-26T05:15:29.000Z,2.5
2023-03-26T05:16:45.000Z,2.1
2023-03-26T05:18:01.000Z,2
2023-03-26T05:19:29.499Z,1.9
2023-03-26T05:20:31.000Z,2
2023-03-26T05:22:01.148Z,2.3
2023-03-26T05:23:04.000Z,2.1
2023-03-26T05:24:20.000Z,2.3
2023-03-26T05:26:02.518Z,2.1
2023-03-26T05:27:05.677Z,2.4
2023-03-26T05:28:22.128Z,2.1
2023-03-26T05:29:38.330Z,1.9
2023-03-26T05:30:41.000Z,1.8
2023-03-26T05:32:10.696Z,2.4
2023-03-26T05:33:26.900Z,1.9
2023-03-26T05:34:29.000Z,2
2023-03-26T05:35:59.277Z,2.2
2023-03-26T05:37:14.484Z,2.3
2023-03-26T05:38:30.684Z,2.1
2023-03-26T05:39:33.000Z,2.3
2023-03-26T05:41:03.068Z,2.4
2023-03-26T05:42:19.017Z,2.1
2023-03-26T05:43:22.000Z,2.4
2023-03-26T05:44:51.404Z,2.3
2023-03-26T05:46:06.624Z,2.2
2023-03-26T05:47:21.835Z,2.6
2023-03-26T05:48:24.000Z,2.3
2023-03-26T05:49:40.000Z,2.1
2023-03-26T05:51:08.702Z,2.5
2023-03-26T05:52:24.899Z,2.4
2023-03-26T05:53:27.000Z,2.5
2023-03-26T05:54:57.039Z,2.3
2023-03-26T05:56:50.111Z,2.2
2023-03-26T05:57:29.427Z,2.2
2023-03-26T05:58:45.621Z,2.2
2023-03-26T06:00:02.053Z,2.2
2023-03-26T06:01:18.252Z,2.2
2023-03-26T06:02:34.441Z,1.8
2023-03-26T06:03:50.396Z,1.9
2023-03-26T06:05:06.835Z,2.1
2023-03-26T06:06:22.783Z,2.7
2023-03-26T06:07:38.235Z,2.2
2023-03-26T06:08:54.436Z,2.4
2023-03-26T06:09:57.000Z,2.2
2023-03-26T06:11:26.818Z,2.3
2023-03-26T06:12:42.768Z,2.1
2023-03-26T06:13:45.000Z,2.6
2023-03-26T06:15:15.155Z,2.1
2023-03-26T06:16:17.000Z,2.3
2023-03-26T06:17:45.586Z,2.2
2023-03-26T06:18:48.000Z,2.1
2023-03-26T06:20:17.972Z,2.3
2023-03-26T06:21:20.000Z,2.5
2023-03-26T06:22:48.402Z,2.3
2023-03-26T06:24:04.597Z,2.6
2023-03-26T06:25:20.790Z,2.5
2023-03-26T06:26:23.000Z,2.6
2023-03-26T06:27:53.177Z,2.8
2023-03-26T06:28:56.000Z,3.2
2023-03-26T06:30:25.565Z,2.2
2023-03-26T06:31:42.001Z,2.3
2023-03-26T06:32:57.952Z,2.6
2023-03-26T06:34:14.146Z,2.9
2023-03-26T06:35:30.339Z,2.4
2023-03-26T06:36:46.533Z,2.2
2023-03-26T06:38:02.976Z,2.6
2023-03-26T06:39:04.000Z,2.4
2023-03-26T06:40:34.130Z,2.3
2023-03-26T06:42:03.962Z,2.5
2023-03-26T06:43:06.517Z,2.6
2023-03-26T06:44:22.711Z,2.3
2023-03-26T06:45:38.905Z,2.4
2023-03-26T06:46:55.099Z,2.5
2023-03-26T06:48:10.319Z,2.5
2023-03-26T06:49:25.529Z,2.7
2023-03-26T06:50:41.723Z,2.6
2023-03-26T06:51:44.000Z,2.7
2023-03-26T06:53:14.110Z,2.4
2023-03-26T06:55:23.880Z,2.1
2023-03-26T06:55:46.498Z,2.3
2023-03-26T06:57:02.691Z,2.8
2023-03-26T06:58:18.886Z,2.4
2023-03-26T06:59:22.000Z,2.8
2023-03-26T07:00:51.273Z,2.7
2023-03-26T07:02:07.467Z,2.6
2023-03-26T07:03:23.660Z,2.6
2023-03-26T07:04:42.373Z,2.8
2023-03-26T07:05:55.065Z,2.5
2023-03-26T07:07:11.504Z,2.6
2023-03-26T07:08:27.451Z,3
2023-03-26T07:09:43.645Z,2.8
2023-03-26T07:10:59.838Z,2.8
2023-03-26T07:12:54.515Z,2.4
2023-03-26T07:13:32.226Z,2.6
2023-03-26T07:14:47.445Z,2.7
2023-03-26T07:16:02.656Z,3
2023-03-26T07:17:18.119Z,2.9
2023-03-26T07:18:33.086Z,2.4
2023-03-26T07:19:36.000Z,2.6
2023-03-26T07:21:04.500Z,2.8
2023-03-26T07:22:06.000Z,2.5
2023-03-26T07:23:35.904Z,2.7
2023-03-26T07:24:52.097Z,2.7
2023-03-26T07:26:08.547Z,2.3
2023-03-26T07:27:24.485Z,2.8
2023-03-26T07:28:40.678Z,2.7
2023-03-26T07:29:57.122Z,2.9
2023-03-26T07:31:13.065Z,2.6
2023-03-26T07:32:29.501Z,2.5
2023-03-26T07:33:45.452Z,3.3
2023-03-26T07:34:48.000Z,2.7
2023-03-26T07:36:17.840Z,2.7
2023-03-26T07:37:34.033Z,2.6
2023-03-26T07:38:49.244Z,2.6
2023-03-26T07:40:05.437Z,2.5
2023-03-26T07:41:21.630Z,2.6
2023-03-26T07:42:38.072Z,2.5
2023-03-26T07:43:54.017Z,2.8
2023-03-26T07:45:10.211Z,2.3
2023-03-26T07:46:26.405Z,2.7
2023-03-26T07:47:41.871Z,2.5
2023-03-26T07:48:56.835Z,2.7
2023-03-26T07:50:13.269Z,2.6
2023-03-26T07:51:28.487Z,2.8
2023-03-26T07:52:43.458Z,2.3
2023-03-26T07:53:59.652Z,2.4
2023-03-26T07:55:54.104Z,2.6
2023-03-26T07:56:32.039Z,2.4
2023-03-26T07:57:59.476Z,2.4
2023-03-26T07:59:04.427Z,2.5
2023-03-26T08:00:20.869Z,2.3
2023-03-26T08:01:36.814Z,2.5
2023-03-26T08:02:53.008Z,2.4
2023-03-26T08:04:09.202Z,2.5
2023-03-26T08:05:25.396Z,2.6
2023-03-26T08:06:41.589Z,2.7
2023-03-26T08:08:17.973Z,2.4
2023-03-26T08:08:59.000Z,2.5
2023-03-26T08:10:29.434Z,2.5
2023-03-26T08:11:45.380Z,2.7
2023-03-26T08:12:48.000Z,2.7
2023-03-26T08:14:17.767Z,2.4
2023-03-26T08:15:19.000Z,2.2
2023-03-26T08:16:49.176Z,3
2023-03-26T08:18:04.396Z,2.5
2023-03-26T08:19:19.850Z,2.6
2023-03-26T08:20:36.048Z,2.7
2023-03-26T08:21:51.020Z,2.5
2023-03-26T08:23:35.341Z,2.5
2023-03-26T08:24:22.673Z,2.4
2023-03-26T08:25:38.617Z,2.7
2023-03-26T08:26:54.811Z,2.8
2023-03-26T08:28:44.090Z,2.6
2023-03-26T08:29:27.198Z,2.6
2023-03-26T08:30:49.461Z,2.3
2023-03-26T08:31:46.000Z,2.7
2023-03-26T08:33:15.780Z,2.5
2023-03-26T08:34:31.973Z,2.6
2023-03-26T08:35:35.000Z,2.7
2023-03-26T08:37:04.608Z,2.6
2023-03-26T08:38:07.000Z,2.8
2023-03-26T08:39:35.765Z,2
2023-03-26T08:41:05.976Z,2.3
2023-03-26T08:42:08.398Z,2.2
2023-03-26T08:43:11.000Z,2.7
2023-03-26T08:44:40.538Z,2.6
2023-03-26T08:45:56.975Z,2.3
2023-03-26T08:47:12.925Z,3
2023-03-26T08:48:28.400Z,1.9
2023-03-26T08:49:43.356Z,2.5
2023-03-26T08:50:46.000Z,2.3
2023-03-26T08:52:15.742Z,2.3
2023-03-26T08:54:23.917Z,2.4
2023-03-26T08:54:46.173Z,2.9
2023-03-26T08:55:49.000Z,2.9
2023-03-26T08:57:05.000Z,2.8
2023-03-26T08:59:31.681Z,2.3
2023-03-26T08:59:50.946Z,2.5
2023-03-26T09:01:37.053Z,2.1
2023-03-26T09:02:23.579Z,2.3
2023-03-26T09:03:39.527Z,2.4
2023-03-26T09:04:55.722Z,2.4
2023-03-26T09:06:12.173Z,2.1
2023-03-26T09:07:28.111Z,2.2
2023-03-26T09:08:51.178Z,2.1
2023-03-26T09:10:00.502Z,2.1
2023-03-26T09:11:15.713Z,2.3
2023-03-26T09:12:31.908Z,2.2
2023-03-26T09:13:58.948Z,2.2
2023-03-26T09:15:04.297Z,2.1
2023-03-26T09:16:07.000Z,2.2
2023-03-26T09:17:36.686Z,2
2023-03-26T09:18:53.133Z,2.1
2023-03-26T09:20:08.351Z,2.2
2023-03-26T09:21:23.314Z,2
2023-03-26T09:22:26.000Z,2.3
2023-03-26T09:23:54.732Z,2.2
2023-03-26T09:25:10.183Z,2.1
2023-03-26T09:27:14.922Z,2.1
2023-03-26T09:27:42.335Z,2
2023-03-26T09:28:45.000Z,2
2023-03-26T09:30:14.726Z,2.2
2023-03-26T09:31:17.000Z,2.2
2023-03-26T09:32:47.116Z,2.4
2023-03-26T09:34:03.552Z,2
2023-03-26T09:35:19.751Z,1.7
2023-03-26T09:36:22.000Z,1.9
2023-03-26T09:37:51.897Z,1.7
2023-03-26T09:39:08.333Z,1.5
2023-03-26T09:40:24.542Z,1.6
2023-03-26T09:41:39.752Z,1.5
2023-03-26T09:42:55.695Z,1.5
2023-03-26T09:43:58.000Z,1.5
2023-03-26T09:45:15.000Z,1.6
2023-03-26T09:46:44.281Z,1.4
2023-03-26T09:48:00.477Z,1.8
2023-03-26T09:49:16.923Z,1.6
2023-03-26T09:50:32.144Z,1.5
2023-03-26T09:51:34.000Z,1.5
2023-03-26T09:53:02.327Z,1.5
2023-03-26T09:54:17.790Z,1.5
2023-03-26T09:55:33.734Z,1.4
2023-03-26T09:56:49.929Z,1.6
2023-03-26T09:58:06.125Z,1.3
2023-03-26T09:59:09.000Z,1.4
2023-03-26T10:00:25.000Z,1.3
2023-03-26T10:01:54.711Z,1.4
2023-03-26T10:03:10.907Z,1.3
2023-03-26T10:04:14.000Z,1.4
2023-03-26T10:05:30.000Z,1.3
2023-03-26T10:06:46.000Z,1.2
2023-03-26T10:08:15.689Z,1.2
2023-03-26T10:09:18.000Z,1.1
2023-03-26T10:10:47.096Z,1.4
2023-03-26T10:12:03.541Z,1.3
2023-03-26T10:13:19.731Z,1.2
2023-03-26T10:14:22.000Z,1.1
2023-03-26T10:15:51.877Z,1.2
2023-03-26T10:17:08.072Z,1.1
2023-03-26T10:18:24.268Z,1.1
2023-03-26T10:19:26.000Z,1.2
2023-03-26T10:20:54.945Z,1.2
2023-03-26T10:22:43.386Z,1.3
2023-03-26T10:23:26.117Z,1.3
2023-03-26T10:24:41.579Z,1.3
2023-03-26T10:25:57.525Z,1.2
2023-03-26T10:27:13.974Z,1.2
2023-03-26T10:28:29.916Z,1.3
2023-03-26T10:29:33.000Z,1.3
2023-03-26T10:31:02.307Z,1.3
2023-03-26T10:32:05.000Z,1.1
2023-03-26T10:33:34.938Z,1.8
2023-03-26T10:35:03.315Z,1.3
2023-03-26T10:36:07.089Z,1.3
2023-03-26T10:37:23.533Z,1.2
2023-03-26T10:38:39.480Z,1.2
2023-03-26T10:40:13.071Z,1.2
2023-03-26T10:41:10.887Z,1.4
2023-03-26T10:42:14.000Z,1.3
2023-03-26T10:43:43.277Z,1.3
2023-03-26T10:44:46.000Z,1.1
2023-03-26T10:46:15.668Z,1.3
2023-03-26T10:48:25.223Z,1.6
2023-03-26T10:48:48.059Z,1.2
2023-03-26T10:50:03.280Z,1.3
2023-03-26T10:51:18.492Z,1.3
2023-03-26T10:52:21.000Z,1.3
2023-03-26T10:53:49.910Z,1.3
2023-03-26T10:55:05.368Z,1.3
2023-03-26T10:56:21.563Z,1.1
2023-03-26T10:57:37.763Z,1.2
2023-03-26T10:58:53.709Z,1.3
2023-03-26T10:59:56.000Z,1.3
2023-03-26T11:01:13.000Z,1.2
2023-03-26T11:02:42.295Z,1.2
2023-03-26T11:03:58.746Z,1.2
2023-03-26T11:05:01.000Z,1.2
2023-03-26T11:06:30.882Z,1
2023-03-26T11:07:47.337Z,1.1
2023-03-26T11:09:03.273Z,1.2
2023-03-26T11:10:19.739Z,1.1
2023-03-26T11:11:34.679Z,1
2023-03-26T11:12:51.124Z,1.2
2023-03-26T11:14:07.070Z,1.1
2023-03-26T11:15:23.265Z,1
2023-03-26T11:16:26.000Z,1.1
2023-03-26T11:17:42.000Z,0.9
2023-03-26T11:19:11.852Z,1.3
2023-03-26T11:20:27.315Z,1.9
2023-03-26T11:21:42.285Z,1.2
2023-03-26T11:22:58.727Z,1.3
2023-03-26T11:24:14.921Z,1
2023-03-26T11:25:29.896Z,1
2023-03-26T11:26:45.108Z,0.7
2023-03-26T11:27:48.000Z,0.7
2023-03-26T11:29:17.498Z,1
2023-03-26T11:30:20.000Z,0.6
2023-03-26T11:31:49.889Z,0.7
2023-03-26T11:33:06.084Z,0.8
2023-03-26T11:34:22.280Z,0.8
2023-03-26T11:35:25.000Z,1
2023-03-26T11:36:54.671Z,0.8
2023-03-26T11:38:17.915Z,0.7
2023-03-26T11:39:13.000Z,0.5
2023-03-26T11:40:43.257Z,0.5
2023-03-26T11:41:59.453Z,0.5
2023-03-26T11:43:01.000Z,0.6
2023-03-26T11:44:17.000Z,0.4
2023-03-26T11:45:33.000Z,0.3
2023-03-26T11:47:03.251Z,0.3
2023-03-26T11:48:06.000Z,0.6
2023-03-26T11:49:35.643Z,0.2
2023-03-26T11:51:39.823Z,0.3
2023-03-26T11:51:53.000Z,0.3
2023-03-26T11:53:41.241Z,0.2
2023-03-26T11:54:25.000Z,0.2
2023-03-26T11:55:40.000Z,0.2
2023-03-26T11:57:08.901Z,0.5
2023-03-26T11:58:12.000Z,0.2
2023-03-26T12:00:19.231Z,0.1
2023-03-26T12:00:44.000Z,0.2
2023-03-26T12:02:13.930Z,0.1
2023-03-26T12:03:16.000Z,0.1
2023-03-26T12:04:46.327Z,0.2
2023-03-26T12:06:02.270Z,0.3
2023-03-26T12:07:18.711Z,0.2
2023-03-26T12:07:45.000Z,0.2
2023-03-26T12:08:21.000Z,0.1
2023-03-26T12:09:50.857Z,0.2
2023-03-26T12:10:53.000Z,0.1
2023-03-26T12:12:23.248Z,0.1
2023-03-26T12:14:54.905Z,0.1
2023-03-26T12:15:57.000Z,0.3
2023-03-26T12:17:13.000Z,0
2023-03-26T12:18:30.000Z,0.2
2023-03-26T12:19:59.438Z,0
2023-03-26T12:21:02.000Z,0.2
2023-03-26T12:22:30.856Z,0.1
2023-03-26T12:23:32.000Z,0.1
2023-03-26T12:24:48.000Z,0.1
2023-03-26T12:26:03.000Z,0.1
2023-03-26T12:27:32.697Z,0.2
2023-03-26T12:28:48.893Z,0.2
2023-03-26T12:30:05.089Z,0
2023-03-26T12:31:07.000Z,0.2
2023-03-26T12:32:36.501Z,0.2
2023-03-26T12:33:39.000Z,0.2
2023-03-26T12:34:55.000Z,0.2
2023-03-26T12:36:45.832Z,0.1
2023-03-26T12:37:28.000Z,0.1
2023-03-26T12:38:44.000Z,0.1
2023-03-26T12:40:00.000Z,0.1
2023-03-26T12:41:16.000Z,0.1
2023-03-26T12:42:46.315Z,0.1
2023-03-26T12:44:02.260Z,0.1
2023-03-26T12:45:18.456Z,0.1
2023-03-26T12:46:21.000Z,0.3
2023-03-26T12:47:49.863Z,0.1
2023-03-26T12:48:52.000Z,0.2
2023-03-26T12:50:22.254Z,0.1
2023-03-26T12:51:37.725Z,0.2
2023-03-26T12:52:53.671Z,0.2
2023-03-26T12:53:55.000Z,0.2
2023-03-26T12:55:25.343Z,0.2
2023-03-26T12:56:40.300Z,0.1
2023-03-26T12:57:55.512Z,0.3
2023-03-26T12:58:58.000Z,0.3
2023-03-26T13:00:27.903Z,0.3
2023-03-26T13:01:44.098Z,0.2
2023-03-26T13:03:00.294Z,0.2
2023-03-26T13:04:03.000Z,0.1
2023-03-26T13:05:32.685Z,0.3
2023-03-26T13:06:00.000Z,0.3
2023-03-26T13:06:48.880Z,0.2
2023-03-26T13:08:05.076Z,0.3
2023-03-26T13:09:21.271Z,0.4
2023-03-26T13:10:37.467Z,0.3
2023-03-26T13:13:09.858Z,0.3
2023-03-26T13:14:11.000Z,0.2
2023-03-26T13:15:41.265Z,0.2
2023-03-26T13:16:57.460Z,0.2
2023-03-26T13:18:13.656Z,0.3
2023-03-26T13:19:29.851Z,0.2
2023-03-26T13:20:46.047Z,0.4
2023-03-26T13:22:02.242Z,0.3
2023-03-26T13:23:17.465Z,0.2
2023-03-26T13:24:19.000Z,0.2
2023-03-26T13:25:35.000Z,0.1
2023-03-26T13:26:50.000Z,0.2
2023-03-26T13:28:19.306Z,0.1
2023-03-26T13:29:35.761Z,0.2
2023-03-26T13:30:51.946Z,0.2
2023-03-26T13:32:08.140Z,0.2
2023-03-26T13:33:24.340Z,0.2
2023-03-26T13:35:16.727Z,0.2
2023-03-26T13:35:56.735Z,0.1
2023-03-26T13:37:21.102Z,0.1
2023-03-26T13:38:15.000Z,0.1
2023-03-26T13:40:25.483Z,0.1
2023-03-26T13:40:48.000Z,0.2
2023-03-26T13:42:17.458Z,0
2023-03-26T13:43:33.910Z,0.1
2023-03-26T13:45:33.255Z,0.1
2023-03-26T13:46:05.307Z,0.1
2023-03-26T13:47:38.630Z,0.1
2023-03-26T13:48:37.710Z,0.1
2023-03-26T13:50:43.011Z,0.1
2023-03-26T13:50:56.000Z,0.1
2023-03-26T13:52:12.000Z,0.2
2023-03-26T13:53:29.000Z,0.1
2023-03-26T13:54:57.457Z,0.3
2023-03-26T13:56:12.918Z,0.1
2023-03-26T13:57:53.187Z,0.2
2023-03-26T13:58:44.335Z,0.3
2023-03-26T13:59:46.000Z,0.2
2023-03-26T14:01:15.495Z,0.1
2023-03-26T14:02:18.000Z,0.3
2023-03-26T14:03:34.000Z,0.3
2023-03-26T14:04:50.000Z,0.2
2023-03-26T14:06:20.278Z,0.2
2023-03-26T14:07:36.473Z,0.2
2023-03-26T14:08:52.669Z,0.2
2023-03-26T14:09:55.000Z,0.2
2023-03-26T14:11:25.061Z,0.4
2023-03-26T14:12:28.000Z,0.2
2023-03-26T14:13:57.452Z,0.3
2023-03-26T14:15:22.875Z,0.1
2023-03-26T14:16:28.859Z,0.4
2023-03-26T14:17:45.054Z,0.3
2023-03-26T14:19:01.496Z,0.3
2023-03-26T14:20:04.000Z,0.4
2023-03-26T14:21:20.000Z,0.4
2023-03-26T14:22:36.000Z,0.3
2023-03-26T14:24:06.280Z,0.4
2023-03-26T14:25:08.000Z,0.3
2023-03-26T14:26:24.000Z,0.4
2023-03-26T14:27:39.000Z,0.5
2023-03-26T14:28:19.000Z,0.4
2023-03-26T14:29:08.137Z,0.4
2023-03-26T14:30:24.337Z,0.4
2023-03-26T14:31:40.278Z,0.3
2023-03-26T14:32:08.000Z,0.6
2023-03-26T14:32:56.473Z,0.4
2023-03-26T14:35:15.000Z,0.3
2023-03-26T14:36:45.060Z,0.4
2023-03-26T14:39:17.700Z,0.5
2023-03-26T14:41:02.744Z,0.5
2023-03-26T14:41:49.844Z,0.5
2023-03-26T14:42:52.000Z,0.3
2023-03-26T14:44:09.000Z,0.6
2023-03-26T14:45:37.446Z,0.6
2023-03-26T14:46:53.642Z,0.5
2023-03-26T14:47:56.000Z,0.6
2023-03-26T14:49:26.034Z,0.7
2023-03-26T14:50:29.000Z,0.4
2023-03-26T14:51:45.000Z,0.6
2023-03-26T14:53:01.000Z,0.5
2023-03-26T14:54:29.844Z,0.6
2023-03-26T14:55:31.000Z,0.6
2023-03-26T14:56:47.000Z,0.8
2023-03-26T14:58:15.489Z,0.6
2023-03-26T14:59:31.932Z,0.5
2023-03-26T15:00:34.000Z,0.7
2023-03-26T15:02:04.077Z,0.6
2023-03-26T15:03:07.000Z,0.8
2023-03-26T15:04:23.000Z,0.6
2023-03-26T15:05:39.000Z,0.6
2023-03-26T15:06:55.000Z,0.7
2023-03-26T15:08:45.006Z,0.7
2023-03-26T15:09:41.251Z,0.9
2023-03-26T15:10:57.446Z,0.9
2023-03-26T15:12:13.643Z,0.8
2023-03-26T15:13:30.082Z,0.8
2023-03-26T15:14:45.322Z,1
2023-03-26T15:15:48.000Z,0.9
2023-03-26T15:17:17.443Z,1.1
2023-03-26T15:18:20.000Z,1
2023-03-26T15:19:49.836Z,1.1
2023-03-26T15:21:06.914Z,1.2
2023-03-26T15:22:22.228Z,1.3
2023-03-26T15:23:37.695Z,1.4
2023-03-26T15:24:52.662Z,1.4
2023-03-26T15:26:09.104Z,1.4
2023-03-26T15:27:10.000Z,1.6
2023-03-26T15:29:14.138Z,1.6
2023-03-26T15:29:55.740Z,1.7
2023-03-26T15:31:18.515Z,1.7
2023-03-26T15:32:27.879Z,1.8
2023-03-26T15:34:22.895Z,1.9
2023-03-26T15:34:47.000Z,2
2023-03-26T15:36:16.467Z,2.3
2023-03-26T15:37:32.663Z,2.4
2023-03-26T15:38:35.000Z,2.5
2023-03-26T15:40:05.054Z,2.6
2023-03-26T15:41:08.000Z,2.5
2023-03-26T15:42:37.445Z,2.9
2023-03-26T15:43:40.000Z,2.7
2023-03-26T15:45:09.101Z,2.7
2023-03-26T15:46:11.000Z,2.5
2023-03-26T15:47:41.497Z,2.5
2023-03-26T15:48:57.440Z,2.5
2023-03-26T15:50:00.000Z,2.6
2023-03-26T15:51:16.000Z,2.5
2023-03-26T15:52:46.027Z,3
2023-03-26T15:53:48.000Z,2.5
2023-03-26T15:55:16.461Z,2.4
2023-03-26T15:56:32.657Z,2.4
2023-03-26T15:57:48.125Z,2.1
2023-03-26T15:58:49.000Z,2.2
2023-03-26T16:00:19.287Z,2.1
2023-03-26T16:01:22.000Z,2.3
2023-03-26T16:02:51.931Z,2.2
2023-03-26T16:03:19.000Z,1.9
2023-03-26T16:04:10.532Z,1.8
2023-03-26T16:05:24.071Z,1.7
2023-03-26T16:06:40.266Z,1.8
2023-03-26T16:07:56.462Z,1.9
2023-03-26T16:10:28.853Z,1.8
2023-03-26T16:11:45.048Z,2
2023-03-26T16:12:48.000Z,2
2023-03-26T16:14:17.441Z,1.9
2023-03-26T16:15:32.915Z,2
2023-03-26T16:17:32.444Z,1.8
2023-03-26T16:18:05.045Z,2
2023-03-26T16:19:37.820Z,1.5
2023-03-26T16:20:24.000Z,1.5
2023-03-26T16:21:53.632Z,1.4
2023-03-26T16:23:09.829Z,1.4
2023-03-26T16:24:11.000Z,1.3
2023-03-26T16:25:40.263Z,1.6
2023-03-26T16:26:56.458Z,1.4
2023-03-26T16:28:12.654Z,1.3
2023-03-26T16:29:29.098Z,1.3
2023-03-26T16:30:44.074Z,1.1
2023-03-26T16:31:46.000Z,1.1
2023-03-26T16:33:15.481Z,1.1
2023-03-26T16:34:18.000Z,1.1
2023-03-26T16:35:34.000Z,1
2023-03-26T16:36:50.000Z,0.9
2023-03-26T16:38:20.522Z,0.8
2023-03-26T16:39:23.000Z,0.8
2023-03-26T16:40:52.656Z,1
2023-03-26T16:42:12.310Z,1.1
2023-03-26T16:43:25.047Z,1
2023-03-26T16:44:28.000Z,1.1
2023-03-26T16:45:56.702Z,0.9
2023-03-26T16:46:59.000Z,0.7
2023-03-26T16:48:28.852Z,0.8
2023-03-26T16:50:24.471Z,0.8
2023-03-26T16:50:48.000Z,0.8
2023-03-26T16:52:04.000Z,0.7
2023-03-26T16:53:33.635Z,1
2023-03-26T16:55:34.228Z,1.1
2023-03-26T16:56:06.289Z,0.7
2023-03-26T16:57:08.000Z,0.8
2023-03-26T16:58:37.694Z,0.8
2023-03-26T16:59:40.000Z,0.7
2023-03-26T17:01:08.865Z,1
2023-03-26T17:02:10.000Z,1.1
2023-03-26T17:03:40.529Z,1
2023-03-26T17:04:43.000Z,0.9
2023-03-26T17:06:19.998Z,1
2023-03-26T17:07:15.000Z,0.8
2023-03-26T17:08:45.055Z,1
2023-03-26T17:09:48.000Z,0.9
2023-03-26T17:11:17.446Z,0.8
2023-03-26T17:12:20.000Z,0.9
2023-03-26T17:13:49.839Z,0.9
2023-03-26T17:14:52.000Z,1.1
2023-03-26T17:16:22.231Z,1
2023-03-26T17:17:38.428Z,1.3
2023-03-26T17:18:53.641Z,1.1
2023-03-26T17:20:09.836Z,1.1
2023-03-26T17:21:26.032Z,1.2
2023-03-26T17:22:42.227Z,1.1
2023-03-26T17:23:58.423Z,0.9
2023-03-26T17:25:01.000Z,0.9
2023-03-26T17:26:30.817Z,0.9
2023-03-26T17:27:32.000Z,1
2023-03-26T17:29:01.251Z,1
2023-03-26T17:30:17.446Z,0.8
2023-03-26T17:31:32.915Z,1.1
2023-03-26T17:33:30.078Z,0.9